sensor_id;sensor_type;location;lat;lon;timestamp;P1;durP1;ratioP1;P2;durP2;ratioP2
8825;SDS011;4449;50.872;4.714;2022-11-20T00:00:02;18.67;;;10.57;;
8825;SDS011;4449;50.872;4.714;2022-11-20T00:02:30;20.03;;;11.50;;
8825;SDS011;4449;50.872;4.714;2022-11-20T00:04:57;21.60;;;11.53;;
8825;SDS011;4449;50.872;4.714;2022-11-20T00:07:26;18.53;;;10.63;;
8825;SDS011;4449;50.872;4.714;2022-11-20T00:09:54;20.50;;;11.53;;
8825;SDS011;4449;50.872;4.714;2022-11-20T00:12:21;22.47;;;11.10;;
8825;SDS011;4449;50.872;4.714;2022-11-20T00:14:49;18.10;;;11.13;;
8825;SDS011;4449;50.872;4.714;2022-11-20T00:17:17;17.40;;;10.70;;
8825;SDS011;4449;50.872;4.714;2022-11-20T00:19:45;18.40;;;11.83;;
8825;SDS011;4449;50.872;4.714;2022-11-20T00:22:12;17.97;;;11.33;;
8825;SDS011;4449;50.872;4.714;2022-11-20T00:24:42;20.33;;;10.90;;
8825;SDS011;4449;50.872;4.714;2022-11-20T00:27:10;25.50;;;11.37;;
8825;SDS011;4449;50.872;4.714;2022-11-20T00:29:38;22.80;;;11.53;;
8825;SDS011;4449;50.872;4.714;2022-11-20T00:32:06;20.23;;;11.60;;
8825;SDS011;4449;50.872;4.714;2022-11-20T00:34:34;17.07;;;11.03;;
8825;SDS011;4449;50.872;4.714;2022-11-20T00:37:01;21.03;;;10.80;;
8825;SDS011;4449;50.872;4.714;2022-11-20T00:39:29;19.40;;;11.03;;
8825;SDS011;4449;50.872;4.714;2022-11-20T00:41:58;17.77;;;10.60;;
8825;SDS011;4449;50.872;4.714;2022-11-20T00:44:26;15.53;;;10.67;;
8825;SDS011;4449;50.872;4.714;2022-11-20T00:46:54;17.40;;;10.83;;
8825;SDS011;4449;50.872;4.714;2022-11-20T00:49:21;17.10;;;10.50;;
8825;SDS011;4449;50.872;4.714;2022-11-20T00:51:49;19.87;;;10.70;;
8825;SDS011;4449;50.872;4.714;2022-11-20T00:54:17;18.93;;;11.80;;
8825;SDS011;4449;50.872;4.714;2022-11-20T00:56:44;20.40;;;10.90;;
8825;SDS011;4449;50.872;4.714;2022-11-20T00:59:14;18.20;;;11.30;;
8825;SDS011;4449;50.872;4.714;2022-11-20T01:01:41;22.13;;;12.47;;
8825;SDS011;4449;50.872;4.714;2022-11-20T01:04:09;17.97;;;10.80;;
8825;SDS011;4449;50.872;4.714;2022-11-20T01:06:37;21.97;;;12.53;;
8825;SDS011;4449;50.872;4.714;2022-11-20T01:09:09;16.63;;;11.10;;
8825;SDS011;4449;50.872;4.714;2022-11-20T01:11:38;23.00;;;10.70;;
8825;SDS011;4449;50.872;4.714;2022-11-20T01:14:07;21.60;;;11.67;;
8825;SDS011;4449;50.872;4.714;2022-11-20T01:16:36;18.17;;;10.87;;
8825;SDS011;4449;50.872;4.714;2022-11-20T01:19:05;18.40;;;10.63;;
8825;SDS011;4449;50.872;4.714;2022-11-20T01:21:33;19.33;;;11.17;;
8825;SDS011;4449;50.872;4.714;2022-11-20T01:24:01;20.47;;;12.43;;
8825;SDS011;4449;50.872;4.714;2022-11-20T01:26:30;17.63;;;11.53;;
8825;SDS011;4449;50.872;4.714;2022-11-20T01:28:58;19.27;;;11.70;;
8825;SDS011;4449;50.872;4.714;2022-11-20T01:31:27;23.30;;;11.63;;
8825;SDS011;4449;50.872;4.714;2022-11-20T01:33:57;20.70;;;11.70;;
8825;SDS011;4449;50.872;4.714;2022-11-20T01:36:27;19.93;;;11.67;;
8825;SDS011;4449;50.872;4.714;2022-11-20T01:38:55;20.07;;;11.77;;
8825;SDS011;4449;50.872;4.714;2022-11-20T01:41:24;22.67;;;12.33;;
8825;SDS011;4449;50.872;4.714;2022-11-20T01:44:10;22.03;;;11.37;;
8825;SDS011;4449;50.872;4.714;2022-11-20T01:46:40;20.87;;;12.07;;
8825;SDS011;4449;50.872;4.714;2022-11-20T01:49:12;19.03;;;10.93;;
8825;SDS011;4449;50.872;4.714;2022-11-20T01:51:43;22.33;;;12.90;;
8825;SDS011;4449;50.872;4.714;2022-11-20T01:54:12;21.93;;;11.77;;
8825;SDS011;4449;50.872;4.714;2022-11-20T01:56:43;21.63;;;11.50;;
8825;SDS011;4449;50.872;4.714;2022-11-20T01:59:12;30.10;;;15.10;;
8825;SDS011;4449;50.872;4.714;2022-11-20T02:01:41;25.80;;;12.37;;
8825;SDS011;4449;50.872;4.714;2022-11-20T02:04:08;20.37;;;11.67;;
8825;SDS011;4449;50.872;4.714;2022-11-20T02:06:40;21.33;;;12.40;;
8825;SDS011;4449;50.872;4.714;2022-11-20T02:09:08;20.43;;;12.57;;
8825;SDS011;4449;50.872;4.714;2022-11-20T02:11:36;22.07;;;12.77;;
8825;SDS011;4449;50.872;4.714;2022-11-20T02:14:04;19.43;;;12.00;;
8825;SDS011;4449;50.872;4.714;2022-11-20T02:16:32;20.30;;;11.77;;
8825;SDS011;4449;50.872;4.714;2022-11-20T02:19:02;24.57;;;11.93;;
8825;SDS011;4449;50.872;4.714;2022-11-20T02:21:33;25.00;;;11.00;;
8825;SDS011;4449;50.872;4.714;2022-11-20T02:24:04;27.83;;;12.93;;
8825;SDS011;4449;50.872;4.714;2022-11-20T02:26:34;20.53;;;12.37;;
8825;SDS011;4449;50.872;4.714;2022-11-20T02:29:04;30.00;;;13.57;;
8825;SDS011;4449;50.872;4.714;2022-11-20T02:31:38;26.93;;;12.47;;
8825;SDS011;4449;50.872;4.714;2022-11-20T02:34:07;20.83;;;11.93;;
8825;SDS011;4449;50.872;4.714;2022-11-20T02:36:35;19.20;;;12.27;;
8825;SDS011;4449;50.872;4.714;2022-11-20T02:39:05;21.90;;;12.53;;
8825;SDS011;4449;50.872;4.714;2022-11-20T02:41:33;24.90;;;13.03;;
8825;SDS011;4449;50.872;4.714;2022-11-20T02:44:01;21.53;;;12.40;;
8825;SDS011;4449;50.872;4.714;2022-11-20T02:46:29;25.40;;;12.17;;
8825;SDS011;4449;50.872;4.714;2022-11-20T02:48:58;27.63;;;13.03;;
8825;SDS011;4449;50.872;4.714;2022-11-20T02:51:25;21.87;;;13.20;;
8825;SDS011;4449;50.872;4.714;2022-11-20T02:53:53;24.07;;;13.40;;
8825;SDS011;4449;50.872;4.714;2022-11-20T02:56:22;25.87;;;14.63;;
8825;SDS011;4449;50.872;4.714;2022-11-20T02:58:50;21.83;;;13.07;;
8825;SDS011;4449;50.872;4.714;2022-11-20T03:01:18;26.17;;;14.40;;
8825;SDS011;4449;50.872;4.714;2022-11-20T03:03:45;23.90;;;12.73;;
8825;SDS011;4449;50.872;4.714;2022-11-20T03:06:14;27.03;;;13.87;;
8825;SDS011;4449;50.872;4.714;2022-11-20T03:08:42;25.80;;;13.20;;
8825;SDS011;4449;50.872;4.714;2022-11-20T03:11:09;24.93;;;13.77;;
8825;SDS011;4449;50.872;4.714;2022-11-20T03:13:39;24.00;;;13.97;;
8825;SDS011;4449;50.872;4.714;2022-11-20T03:16:10;27.53;;;13.70;;
8825;SDS011;4449;50.872;4.714;2022-11-20T03:18:38;26.87;;;13.43;;
8825;SDS011;4449;50.872;4.714;2022-11-20T03:21:06;24.03;;;13.47;;
8825;SDS011;4449;50.872;4.714;2022-11-20T03:23:34;31.87;;;14.07;;
8825;SDS011;4449;50.872;4.714;2022-11-20T03:26:11;23.77;;;12.97;;
8825;SDS011;4449;50.872;4.714;2022-11-20T03:28:41;27.73;;;14.40;;
8825;SDS011;4449;50.872;4.714;2022-11-20T03:31:09;30.33;;;17.65;;
8825;SDS011;4449;50.872;4.714;2022-11-20T03:33:38;27.43;;;13.83;;
8825;SDS011;4449;50.872;4.714;2022-11-20T03:36:06;31.67;;;15.30;;
8825;SDS011;4449;50.872;4.714;2022-11-20T03:38:34;23.17;;;13.20;;
8825;SDS011;4449;50.872;4.714;2022-11-20T03:41:03;27.37;;;13.67;;
8825;SDS011;4449;50.872;4.714;2022-11-20T03:43:31;34.03;;;15.37;;
8825;SDS011;4449;50.872;4.714;2022-11-20T03:46:00;27.10;;;14.03;;
8825;SDS011;4449;50.872;4.714;2022-11-20T03:48:28;28.00;;;14.43;;
8825;SDS011;4449;50.872;4.714;2022-11-20T03:51:06;30.47;;;15.47;;
8825;SDS011;4449;50.872;4.714;2022-11-20T03:53:34;25.57;;;13.83;;
8825;SDS011;4449;50.872;4.714;2022-11-20T03:56:02;29.00;;;13.27;;
8825;SDS011;4449;50.872;4.714;2022-11-20T03:58:30;25.90;;;13.50;;
8825;SDS011;4449;50.872;4.714;2022-11-20T04:00:57;23.30;;;12.90;;
8825;SDS011;4449;50.872;4.714;2022-11-20T04:03:26;27.40;;;13.73;;
8825;SDS011;4449;50.872;4.714;2022-11-20T04:05:54;26.23;;;14.00;;
8825;SDS011;4449;50.872;4.714;2022-11-20T04:08:22;25.60;;;12.97;;
8825;SDS011;4449;50.872;4.714;2022-11-20T04:10:49;28.07;;;13.67;;
8825;SDS011;4449;50.872;4.714;2022-11-20T04:13:17;28.00;;;14.33;;
8825;SDS011;4449;50.872;4.714;2022-11-20T04:15:45;26.37;;;13.50;;
8825;SDS011;4449;50.872;4.714;2022-11-20T04:18:13;27.37;;;13.37;;
8825;SDS011;4449;50.872;4.714;2022-11-20T04:20:42;24.50;;;12.93;;
8825;SDS011;4449;50.872;4.714;2022-11-20T04:23:10;25.07;;;12.77;;
8825;SDS011;4449;50.872;4.714;2022-11-20T04:25:37;22.93;;;13.80;;
8825;SDS011;4449;50.872;4.714;2022-11-20T04:28:05;29.63;;;13.90;;
8825;SDS011;4449;50.872;4.714;2022-11-20T04:30:33;28.10;;;12.90;;
8825;SDS011;4449;50.872;4.714;2022-11-20T04:33:00;24.33;;;12.43;;
8825;SDS011;4449;50.872;4.714;2022-11-20T04:35:28;26.70;;;12.80;;
8825;SDS011;4449;50.872;4.714;2022-11-20T04:37:57;21.23;;;13.07;;
8825;SDS011;4449;50.872;4.714;2022-11-20T04:40:25;24.67;;;12.77;;
8825;SDS011;4449;50.872;4.714;2022-11-20T04:42:52;21.23;;;13.10;;
8825;SDS011;4449;50.872;4.714;2022-11-20T04:45:21;24.77;;;12.93;;
8825;SDS011;4449;50.872;4.714;2022-11-20T04:47:49;19.47;;;11.73;;
8825;SDS011;4449;50.872;4.714;2022-11-20T04:50:16;26.10;;;12.40;;
8825;SDS011;4449;50.872;4.714;2022-11-20T04:52:44;25.90;;;11.53;;
8825;SDS011;4449;50.872;4.714;2022-11-20T04:55:13;21.13;;;11.97;;
8825;SDS011;4449;50.872;4.714;2022-11-20T04:57:41;20.50;;;10.93;;
8825;SDS011;4449;50.872;4.714;2022-11-20T05:00:09;21.63;;;11.63;;
8825;SDS011;4449;50.872;4.714;2022-11-20T05:02:37;22.60;;;11.77;;
8825;SDS011;4449;50.872;4.714;2022-11-20T05:05:05;23.67;;;12.43;;
8825;SDS011;4449;50.872;4.714;2022-11-20T05:07:33;23.17;;;11.90;;
8825;SDS011;4449;50.872;4.714;2022-11-20T05:10:00;23.53;;;12.83;;
8825;SDS011;4449;50.872;4.714;2022-11-20T05:12:29;22.00;;;12.43;;
8825;SDS011;4449;50.872;4.714;2022-11-20T05:14:58;22.43;;;11.60;;
8825;SDS011;4449;50.872;4.714;2022-11-20T05:17:26;19.83;;;11.87;;
8825;SDS011;4449;50.872;4.714;2022-11-20T05:19:54;22.47;;;12.30;;
8825;SDS011;4449;50.872;4.714;2022-11-20T05:22:21;23.27;;;12.50;;
8825;SDS011;4449;50.872;4.714;2022-11-20T05:24:49;18.70;;;11.33;;
8825;SDS011;4449;50.872;4.714;2022-11-20T05:27:17;23.90;;;11.80;;
8825;SDS011;4449;50.872;4.714;2022-11-20T05:29:46;19.53;;;11.97;;
8825;SDS011;4449;50.872;4.714;2022-11-20T05:32:14;21.87;;;12.07;;
8825;SDS011;4449;50.872;4.714;2022-11-20T05:34:41;19.83;;;11.50;;
8825;SDS011;4449;50.872;4.714;2022-11-20T05:37:09;25.00;;;12.07;;
8825;SDS011;4449;50.872;4.714;2022-11-20T05:39:37;24.27;;;11.57;;
8825;SDS011;4449;50.872;4.714;2022-11-20T05:42:04;20.60;;;11.30;;
8825;SDS011;4449;50.872;4.714;2022-11-20T05:44:51;19.50;;;11.10;;
8825;SDS011;4449;50.872;4.714;2022-11-20T05:47:19;21.80;;;11.77;;
8825;SDS011;4449;50.872;4.714;2022-11-20T05:49:46;19.47;;;11.50;;
8825;SDS011;4449;50.872;4.714;2022-11-20T05:52:14;21.23;;;11.17;;
8825;SDS011;4449;50.872;4.714;2022-11-20T05:54:42;19.57;;;11.40;;
8825;SDS011;4449;50.872;4.714;2022-11-20T05:57:10;19.47;;;10.97;;
8825;SDS011;4449;50.872;4.714;2022-11-20T05:59:37;25.77;;;11.13;;
8825;SDS011;4449;50.872;4.714;2022-11-20T06:02:06;22.50;;;12.37;;
8825;SDS011;4449;50.872;4.714;2022-11-20T06:04:34;25.83;;;12.00;;
8825;SDS011;4449;50.872;4.714;2022-11-20T06:07:02;24.57;;;12.23;;
8825;SDS011;4449;50.872;4.714;2022-11-20T06:09:30;20.73;;;10.67;;
8825;SDS011;4449;50.872;4.714;2022-11-20T06:11:57;18.60;;;10.73;;
8825;SDS011;4449;50.872;4.714;2022-11-20T06:14:25;21.07;;;11.10;;
8825;SDS011;4449;50.872;4.714;2022-11-20T06:16:53;21.00;;;11.33;;
8825;SDS011;4449;50.872;4.714;2022-11-20T06:19:22;21.63;;;10.70;;
8825;SDS011;4449;50.872;4.714;2022-11-20T06:21:50;20.33;;;11.93;;
8825;SDS011;4449;50.872;4.714;2022-11-20T06:24:17;20.20;;;10.33;;
8825;SDS011;4449;50.872;4.714;2022-11-20T06:26:45;25.80;;;12.53;;
8825;SDS011;4449;50.872;4.714;2022-11-20T06:29:13;19.13;;;11.07;;
8825;SDS011;4449;50.872;4.714;2022-11-20T06:31:40;26.60;;;12.53;;
8825;SDS011;4449;50.872;4.714;2022-11-20T06:34:08;23.43;;;11.33;;
8825;SDS011;4449;50.872;4.714;2022-11-20T06:36:39;21.50;;;10.57;;
8825;SDS011;4449;50.872;4.714;2022-11-20T06:39:07;24.17;;;11.23;;
8825;SDS011;4449;50.872;4.714;2022-11-20T06:41:35;31.90;;;12.33;;
8825;SDS011;4449;50.872;4.714;2022-11-20T06:44:03;29.10;;;12.07;;
8825;SDS011;4449;50.872;4.714;2022-11-20T06:46:32;29.33;;;12.00;;
8825;SDS011;4449;50.872;4.714;2022-11-20T06:49:01;25.73;;;12.53;;
8825;SDS011;4449;50.872;4.714;2022-11-20T06:51:28;36.50;;;13.30;;
8825;SDS011;4449;50.872;4.714;2022-11-20T06:53:57;28.80;;;13.07;;
8825;SDS011;4449;50.872;4.714;2022-11-20T06:56:26;31.37;;;12.57;;
8825;SDS011;4449;50.872;4.714;2022-11-20T06:58:54;31.97;;;13.17;;
8825;SDS011;4449;50.872;4.714;2022-11-20T07:01:21;33.47;;;13.30;;
8825;SDS011;4449;50.872;4.714;2022-11-20T07:03:49;30.27;;;12.87;;
8825;SDS011;4449;50.872;4.714;2022-11-20T07:06:17;33.20;;;12.57;;
8825;SDS011;4449;50.872;4.714;2022-11-20T07:08:45;35.97;;;13.23;;
8825;SDS011;4449;50.872;4.714;2022-11-20T07:11:14;34.33;;;11.70;;
8825;SDS011;4449;50.872;4.714;2022-11-20T07:13:41;30.47;;;12.73;;
8825;SDS011;4449;50.872;4.714;2022-11-20T07:16:09;34.47;;;13.33;;
8825;SDS011;4449;50.872;4.714;2022-11-20T07:18:37;35.40;;;14.50;;
8825;SDS011;4449;50.872;4.714;2022-11-20T07:21:05;31.60;;;12.77;;
8825;SDS011;4449;50.872;4.714;2022-11-20T07:23:33;37.90;;;14.10;;
8825;SDS011;4449;50.872;4.714;2022-11-20T07:26:02;28.73;;;13.03;;
8825;SDS011;4449;50.872;4.714;2022-11-20T07:28:32;38.00;;;14.03;;
8825;SDS011;4449;50.872;4.714;2022-11-20T07:31:00;37.43;;;14.33;;
8825;SDS011;4449;50.872;4.714;2022-11-20T07:33:28;37.43;;;13.60;;
8825;SDS011;4449;50.872;4.714;2022-11-20T07:35:55;34.07;;;13.90;;
8825;SDS011;4449;50.872;4.714;2022-11-20T07:38:25;35.33;;;13.10;;
8825;SDS011;4449;50.872;4.714;2022-11-20T07:40:53;36.03;;;13.63;;
8825;SDS011;4449;50.872;4.714;2022-11-20T07:43:21;39.43;;;14.53;;
8825;SDS011;4449;50.872;4.714;2022-11-20T07:45:51;34.30;;;13.80;;
8825;SDS011;4449;50.872;4.714;2022-11-20T07:48:18;33.27;;;13.87;;
8825;SDS011;4449;50.872;4.714;2022-11-20T07:50:46;38.43;;;15.33;;
8825;SDS011;4449;50.872;4.714;2022-11-20T07:53:14;31.53;;;13.57;;
8825;SDS011;4449;50.872;4.714;2022-11-20T07:55:46;37.57;;;14.87;;
8825;SDS011;4449;50.872;4.714;2022-11-20T07:58:13;37.03;;;14.73;;
8825;SDS011;4449;50.872;4.714;2022-11-20T08:00:41;42.13;;;15.53;;
8825;SDS011;4449;50.872;4.714;2022-11-20T08:03:10;38.00;;;15.10;;
8825;SDS011;4449;50.872;4.714;2022-11-20T08:05:38;41.13;;;14.60;;
8825;SDS011;4449;50.872;4.714;2022-11-20T08:08:08;35.63;;;13.70;;
8825;SDS011;4449;50.872;4.714;2022-11-20T08:10:35;33.47;;;13.07;;
8825;SDS011;4449;50.872;4.714;2022-11-20T08:13:03;32.67;;;12.70;;
8825;SDS011;4449;50.872;4.714;2022-11-20T08:15:48;35.97;;;14.00;;
8825;SDS011;4449;50.872;4.714;2022-11-20T08:18:18;35.37;;;14.00;;
8825;SDS011;4449;50.872;4.714;2022-11-20T08:20:46;42.17;;;15.73;;
8825;SDS011;4449;50.872;4.714;2022-11-20T08:23:13;39.63;;;14.77;;
8825;SDS011;4449;50.872;4.714;2022-11-20T08:25:41;40.60;;;15.00;;
8825;SDS011;4449;50.872;4.714;2022-11-20T08:28:09;39.67;;;15.47;;
8825;SDS011;4449;50.872;4.714;2022-11-20T08:30:37;41.37;;;15.67;;
8825;SDS011;4449;50.872;4.714;2022-11-20T08:33:06;39.97;;;16.90;;
8825;SDS011;4449;50.872;4.714;2022-11-20T08:35:36;39.47;;;16.50;;
8825;SDS011;4449;50.872;4.714;2022-11-20T08:38:04;41.93;;;17.10;;
8825;SDS011;4449;50.872;4.714;2022-11-20T08:40:32;48.20;;;15.57;;
8825;SDS011;4449;50.872;4.714;2022-11-20T08:43:00;37.20;;;14.50;;
8825;SDS011;4449;50.872;4.714;2022-11-20T08:45:28;34.87;;;13.50;;
8825;SDS011;4449;50.872;4.714;2022-11-20T08:47:59;35.77;;;14.07;;
8825;SDS011;4449;50.872;4.714;2022-11-20T08:50:27;38.30;;;14.93;;
8825;SDS011;4449;50.872;4.714;2022-11-20T08:53:02;39.30;;;15.30;;
8825;SDS011;4449;50.872;4.714;2022-11-20T08:55:30;37.70;;;14.77;;
8825;SDS011;4449;50.872;4.714;2022-11-20T08:57:58;36.23;;;13.90;;
8825;SDS011;4449;50.872;4.714;2022-11-20T09:00:25;39.40;;;14.63;;
8825;SDS011;4449;50.872;4.714;2022-11-20T09:02:53;37.83;;;15.47;;
8825;SDS011;4449;50.872;4.714;2022-11-20T09:05:21;30.13;;;13.83;;
8825;SDS011;4449;50.872;4.714;2022-11-20T09:07:49;40.17;;;15.37;;
8825;SDS011;4449;50.872;4.714;2022-11-20T09:10:18;37.37;;;14.97;;
8825;SDS011;4449;50.872;4.714;2022-11-20T09:12:48;33.57;;;14.53;;
8825;SDS011;4449;50.872;4.714;2022-11-20T09:15:17;30.60;;;13.07;;
8825;SDS011;4449;50.872;4.714;2022-11-20T09:17:50;39.13;;;15.17;;
8825;SDS011;4449;50.872;4.714;2022-11-20T09:20:17;34.53;;;13.93;;
8825;SDS011;4449;50.872;4.714;2022-11-20T09:22:45;32.37;;;14.17;;
8825;SDS011;4449;50.872;4.714;2022-11-20T09:25:13;35.17;;;15.40;;
8825;SDS011;4449;50.872;4.714;2022-11-20T09:27:42;35.80;;;13.90;;
8825;SDS011;4449;50.872;4.714;2022-11-20T09:30:11;36.07;;;13.17;;
8825;SDS011;4449;50.872;4.714;2022-11-20T09:32:39;34.93;;;13.53;;
8825;SDS011;4449;50.872;4.714;2022-11-20T09:35:07;34.47;;;13.23;;
8825;SDS011;4449;50.872;4.714;2022-11-20T09:37:35;41.83;;;14.33;;
8825;SDS011;4449;50.872;4.714;2022-11-20T09:40:03;41.73;;;14.70;;
8825;SDS011;4449;50.872;4.714;2022-11-20T10:41:43;16.67;;;8.10;;
8825;SDS011;4449;50.872;4.714;2022-11-20T10:44:14;16.83;;;8.60;;
8825;SDS011;4449;50.872;4.714;2022-11-20T10:47:03;19.70;;;9.23;;
8825;SDS011;4449;50.872;4.714;2022-11-20T10:49:31;19.27;;;10.13;;
8825;SDS011;4449;50.872;4.714;2022-11-20T10:52:02;18.60;;;9.30;;
8825;SDS011;4449;50.872;4.714;2022-11-20T10:54:32;18.87;;;9.80;;
8825;SDS011;4449;50.872;4.714;2022-11-20T10:57:06;13.93;;;7.73;;
8825;SDS011;4449;50.872;4.714;2022-11-20T11:02:33;13.70;;;6.33;;
8825;SDS011;4449;50.872;4.714;2022-11-20T11:05:06;15.73;;;8.00;;
8825;SDS011;4449;50.872;4.714;2022-11-20T11:07:35;11.17;;;6.93;;
8825;SDS011;4449;50.872;4.714;2022-11-20T11:10:05;13.87;;;6.17;;
8825;SDS011;4449;50.872;4.714;2022-11-20T11:12:44;12.53;;;6.03;;
8825;SDS011;4449;50.872;4.714;2022-11-20T11:15:13;9.70;;;6.33;;
8825;SDS011;4449;50.872;4.714;2022-11-20T11:17:46;10.07;;;5.80;;
8825;SDS011;4449;50.872;4.714;2022-11-20T11:20:15;12.37;;;7.70;;
8825;SDS011;4449;50.872;4.714;2022-11-20T11:22:44;9.27;;;4.63;;
8825;SDS011;4449;50.872;4.714;2022-11-20T11:25:24;13.23;;;4.70;;
8825;SDS011;4449;50.872;4.714;2022-11-20T11:27:54;8.87;;;4.63;;
8825;SDS011;4449;50.872;4.714;2022-11-20T11:30:22;6.40;;;4.80;;
8825;SDS011;4449;50.872;4.714;2022-11-20T11:32:51;9.37;;;4.93;;
8825;SDS011;4449;50.872;4.714;2022-11-20T11:35:29;5.50;;;4.33;;
8825;SDS011;4449;50.872;4.714;2022-11-20T11:38:02;7.17;;;4.07;;
8825;SDS011;4449;50.872;4.714;2022-11-20T11:40:31;4.77;;;3.87;;
8825;SDS011;4449;50.872;4.714;2022-11-20T11:43:01;8.30;;;4.03;;
8825;SDS011;4449;50.872;4.714;2022-11-20T11:45:29;7.43;;;4.47;;
8825;SDS011;4449;50.872;4.714;2022-11-20T11:47:56;5.07;;;3.43;;
8825;SDS011;4449;50.872;4.714;2022-11-20T11:50:24;7.07;;;3.33;;
8825;SDS011;4449;50.872;4.714;2022-11-20T11:52:56;4.93;;;3.40;;
8825;SDS011;4449;50.872;4.714;2022-11-20T11:55:28;4.40;;;3.27;;
8825;SDS011;4449;50.872;4.714;2022-11-20T11:57:59;3.00;;;2.80;;
8825;SDS011;4449;50.872;4.714;2022-11-20T12:00:33;2.67;;;2.47;;
8825;SDS011;4449;50.872;4.714;2022-11-20T12:03:04;2.77;;;2.47;;
8825;SDS011;4449;50.872;4.714;2022-11-20T12:05:35;7.00;;;3.00;;
8825;SDS011;4449;50.872;4.714;2022-11-20T12:08:05;3.07;;;2.37;;
8825;SDS011;4449;50.872;4.714;2022-11-20T12:10:37;6.10;;;2.17;;
8825;SDS011;4449;50.872;4.714;2022-11-20T12:13:10;2.50;;;2.13;;
8825;SDS011;4449;50.872;4.714;2022-11-20T12:15:44;1.77;;;1.63;;
8825;SDS011;4449;50.872;4.714;2022-11-20T12:18:14;6.43;;;2.20;;
8825;SDS011;4449;50.872;4.714;2022-11-20T12:20:43;2.33;;;1.67;;
8825;SDS011;4449;50.872;4.714;2022-11-20T12:23:14;4.17;;;2.13;;
8825;SDS011;4449;50.872;4.714;2022-11-20T12:25:44;3.10;;;1.80;;
8825;SDS011;4449;50.872;4.714;2022-11-20T12:28:21;2.20;;;1.97;;
8825;SDS011;4449;50.872;4.714;2022-11-20T12:31:02;3.70;;;2.10;;
8825;SDS011;4449;50.872;4.714;2022-11-20T12:36:27;4.90;;;2.10;;
8825;SDS011;4449;50.872;4.714;2022-11-20T12:39:02;1.47;;;1.40;;
8825;SDS011;4449;50.872;4.714;2022-11-20T12:41:40;5.87;;;1.60;;
8825;SDS011;4449;50.872;4.714;2022-11-20T12:44:32;1.93;;;1.87;;
8825;SDS011;4449;50.872;4.714;2022-11-20T12:47:23;4.90;;;1.93;;
8825;SDS011;4449;50.872;4.714;2022-11-20T12:49:58;3.60;;;1.60;;
8825;SDS011;4449;50.872;4.714;2022-11-20T12:52:34;2.43;;;1.50;;
8825;SDS011;4449;50.872;4.714;2022-11-20T12:57:53;1.70;;;1.50;;
8825;SDS011;4449;50.872;4.714;2022-11-20T13:00:22;2.50;;;1.70;;
8825;SDS011;4449;50.872;4.714;2022-11-20T13:03:05;3.13;;;2.10;;
8825;SDS011;4449;50.872;4.714;2022-11-20T13:05:37;7.50;;;2.23;;
8825;SDS011;4449;50.872;4.714;2022-11-20T13:08:13;6.40;;;2.37;;
8825;SDS011;4449;50.872;4.714;2022-11-20T13:10:43;4.53;;;2.47;;
8825;SDS011;4449;50.872;4.714;2022-11-20T13:13:14;2.90;;;2.10;;
8825;SDS011;4449;50.872;4.714;2022-11-20T13:15:46;2.23;;;2.03;;
8825;SDS011;4449;50.872;4.714;2022-11-20T13:18:17;2.47;;;2.27;;
8825;SDS011;4449;50.872;4.714;2022-11-20T13:20:45;2.43;;;1.77;;
8825;SDS011;4449;50.872;4.714;2022-11-20T13:23:24;2.13;;;2.03;;
8825;SDS011;4449;50.872;4.714;2022-11-20T13:26:02;2.37;;;2.17;;
8825;SDS011;4449;50.872;4.714;2022-11-20T13:28:30;2.50;;;2.10;;
8825;SDS011;4449;50.872;4.714;2022-11-20T13:30:58;3.50;;;2.10;;
8825;SDS011;4449;50.872;4.714;2022-11-20T13:33:29;4.93;;;2.40;;
8825;SDS011;4449;50.872;4.714;2022-11-20T13:35:58;1.97;;;1.73;;
8825;SDS011;4449;50.872;4.714;2022-11-20T13:38:26;3.17;;;2.63;;
8825;SDS011;4449;50.872;4.714;2022-11-20T13:40:54;2.67;;;2.57;;
8825;SDS011;4449;50.872;4.714;2022-11-20T13:43:26;3.10;;;2.90;;
8825;SDS011;4449;50.872;4.714;2022-11-20T13:45:55;4.53;;;3.33;;
8825;SDS011;4449;50.872;4.714;2022-11-20T13:48:24;4.60;;;3.13;;
8825;SDS011;4449;50.872;4.714;2022-11-20T13:50:56;2.57;;;2.37;;
8825;SDS011;4449;50.872;4.714;2022-11-20T13:53:33;3.83;;;2.20;;
8825;SDS011;4449;50.872;4.714;2022-11-20T13:56:05;2.13;;;2.03;;
8825;SDS011;4449;50.872;4.714;2022-11-20T13:58:40;2.43;;;2.00;;
8825;SDS011;4449;50.872;4.714;2022-11-20T14:01:15;2.90;;;2.10;;
8825;SDS011;4449;50.872;4.714;2022-11-20T14:03:43;2.80;;;2.10;;
8825;SDS011;4449;50.872;4.714;2022-11-20T14:06:14;2.77;;;2.23;;
8825;SDS011;4449;50.872;4.714;2022-11-20T14:08:44;5.20;;;2.10;;
8825;SDS011;4449;50.872;4.714;2022-11-20T14:11:14;1.87;;;1.73;;
8825;SDS011;4449;50.872;4.714;2022-11-20T14:13:52;2.40;;;2.03;;
8825;SDS011;4449;50.872;4.714;2022-11-20T14:16:21;1.97;;;1.87;;
8825;SDS011;4449;50.872;4.714;2022-11-20T14:18:49;2.20;;;1.90;;
8825;SDS011;4449;50.872;4.714;2022-11-20T14:21:25;2.03;;;1.93;;
8825;SDS011;4449;50.872;4.714;2022-11-20T14:23:54;2.00;;;1.90;;
8825;SDS011;4449;50.872;4.714;2022-11-20T14:26:22;2.50;;;1.80;;
8825;SDS011;4449;50.872;4.714;2022-11-20T14:28:50;4.63;;;1.90;;
8825;SDS011;4449;50.872;4.714;2022-11-20T14:31:21;1.57;;;1.47;;
8825;SDS011;4449;50.872;4.714;2022-11-20T14:33:50;3.50;;;1.97;;
8825;SDS011;4449;50.872;4.714;2022-11-20T14:36:18;2.37;;;1.80;;
8825;SDS011;4449;50.872;4.714;2022-11-20T14:38:48;2.20;;;1.77;;
8825;SDS011;4449;50.872;4.714;2022-11-20T14:41:17;1.70;;;1.60;;
8825;SDS011;4449;50.872;4.714;2022-11-20T14:43:46;1.50;;;1.50;;
8825;SDS011;4449;50.872;4.714;2022-11-20T14:46:14;1.90;;;1.70;;
8825;SDS011;4449;50.872;4.714;2022-11-20T14:48:43;2.23;;;1.77;;
8825;SDS011;4449;50.872;4.714;2022-11-20T14:51:12;1.40;;;1.40;;
8825;SDS011;4449;50.872;4.714;2022-11-20T14:53:52;1.50;;;1.40;;
8825;SDS011;4449;50.872;4.714;2022-11-20T14:56:23;1.40;;;1.40;;
8825;SDS011;4449;50.872;4.714;2022-11-20T14:58:57;1.60;;;1.50;;
8825;SDS011;4449;50.872;4.714;2022-11-20T15:01:25;1.60;;;1.57;;
8825;SDS011;4449;50.872;4.714;2022-11-20T15:03:59;1.97;;;1.73;;
8825;SDS011;4449;50.872;4.714;2022-11-20T15:06:27;1.80;;;1.70;;
8825;SDS011;4449;50.872;4.714;2022-11-20T15:08:57;1.77;;;1.67;;
8825;SDS011;4449;50.872;4.714;2022-11-20T15:11:27;2.03;;;1.30;;
8825;SDS011;4449;50.872;4.714;2022-11-20T15:13:57;1.80;;;1.70;;
8825;SDS011;4449;50.872;4.714;2022-11-20T15:16:25;1.33;;;1.33;;
8825;SDS011;4449;50.872;4.714;2022-11-20T15:18:53;1.43;;;1.43;;
8825;SDS011;4449;50.872;4.714;2022-11-20T15:21:21;1.67;;;1.50;;
8825;SDS011;4449;50.872;4.714;2022-11-20T15:23:49;2.30;;;2.00;;
8825;SDS011;4449;50.872;4.714;2022-11-20T15:26:22;1.70;;;1.60;;
8825;SDS011;4449;50.872;4.714;2022-11-20T15:28:51;3.63;;;2.20;;
8825;SDS011;4449;50.872;4.714;2022-11-20T15:31:20;1.93;;;1.83;;
8825;SDS011;4449;50.872;4.714;2022-11-20T15:33:48;2.20;;;2.10;;
8825;SDS011;4449;50.872;4.714;2022-11-20T15:36:16;2.33;;;2.00;;
8825;SDS011;4449;50.872;4.714;2022-11-20T15:38:44;2.30;;;2.10;;
8825;SDS011;4449;50.872;4.714;2022-11-20T15:41:12;2.20;;;2.00;;
8825;SDS011;4449;50.872;4.714;2022-11-20T15:43:41;3.53;;;2.27;;
8825;SDS011;4449;50.872;4.714;2022-11-20T15:46:09;2.37;;;2.23;;
8825;SDS011;4449;50.872;4.714;2022-11-20T15:48:38;2.37;;;2.27;;
8825;SDS011;4449;50.872;4.714;2022-11-20T15:51:07;2.47;;;2.33;;
8825;SDS011;4449;50.872;4.714;2022-11-20T15:53:40;2.53;;;2.33;;
8825;SDS011;4449;50.872;4.714;2022-11-20T15:56:09;3.60;;;2.77;;
8825;SDS011;4449;50.872;4.714;2022-11-20T15:58:38;2.80;;;2.60;;
8825;SDS011;4449;50.872;4.714;2022-11-20T16:01:09;5.17;;;2.80;;
8825;SDS011;4449;50.872;4.714;2022-11-20T16:03:37;6.03;;;2.60;;
8825;SDS011;4449;50.872;4.714;2022-11-20T16:06:05;3.00;;;2.80;;
8825;SDS011;4449;50.872;4.714;2022-11-20T16:08:33;3.00;;;2.60;;
8825;SDS011;4449;50.872;4.714;2022-11-20T16:11:01;4.23;;;2.57;;
8825;SDS011;4449;50.872;4.714;2022-11-20T16:13:30;2.60;;;2.40;;
8825;SDS011;4449;50.872;4.714;2022-11-20T16:16:19;6.83;;;3.10;;
8825;SDS011;4449;50.872;4.714;2022-11-20T16:18:48;4.30;;;2.90;;